ELY542 LGAV-LLBG
Flight info
| Callsign | ELY542 |
|---|---|
| Flight time | 1h 39m |
| Altitude | 35000 |
| Route | KEA N132 TUXEM UT514 PEXAN UM601 MADEX UN132 KUPIS UN134 VANZA DCT PIKOG L609 ZUKKO |
| Aircraft | B789/H-SDE1E2E3FGHIJ2J3J4J5M1RWXY/LB1D1 |
Departure
| Time | 2026-05-05 22:18 |
|---|---|
| Airport | Athens Eleftherios Venizelos International Airport (LGAV) |
Arrival
| Time | 2026-05-05 23:58 |
|---|---|
| Airport | Ben Gurion International Airport (LLBG) |
| Time | Latitude | Longitude | Altitude | Speed | Heading |
|---|---|---|---|---|---|
| 2026-05-05 21:34 | 37.93281 | 23.94551 | 296 ft | 0 kts | 307° |
| 2026-05-05 22:05 | 37.93276 | 23.94567 | 296 ft | 2 kts | 260° |
| 2026-05-05 22:06 | 37.93280 | 23.94587 | 296 ft | 2 kts | 248° |
| 2026-05-05 22:06 | 37.93286 | 23.94596 | 296 ft | 0 kts | 224° |
| 2026-05-05 22:10 | 37.93285 | 23.94595 | 296 ft | 1 kts | 224° |
| 2026-05-05 22:11 | 37.93281 | 23.94590 | 296 ft | 0 kts | 224° |
| 2026-05-05 22:11 | 37.93274 | 23.94584 | 296 ft | 4 kts | 212° |
| 2026-05-05 22:11 | 37.93238 | 23.94581 | 295 ft | 9 kts | 174° |
| 2026-05-05 22:11 | 37.93153 | 23.94591 | 291 ft | 13 kts | 178° |
| 2026-05-05 22:12 | 37.93083 | 23.94633 | 292 ft | 9 kts | 139° |
| 2026-05-05 22:12 | 37.93048 | 23.94658 | 294 ft | 8 kts | 164° |
| 2026-05-05 22:12 | 37.93002 | 23.94651 | 293 ft | 6 kts | 201° |
| 2026-05-05 22:12 | 37.92939 | 23.94605 | 290 ft | 9 kts | 213° |
| 2026-05-05 22:13 | 37.92900 | 23.94571 | 288 ft | 11 kts | 214° |
| 2026-05-05 22:13 | 37.92815 | 23.94485 | 287 ft | 13 kts | 219° |
| 2026-05-05 22:13 | 37.92764 | 23.94436 | 287 ft | 14 kts | 217° |
| 2026-05-05 22:13 | 37.92677 | 23.94353 | 286 ft | 17 kts | 216° |
| 2026-05-05 22:14 | 37.92572 | 23.94294 | 285 ft | 15 kts | 174° |
| 2026-05-05 22:14 | 37.92536 | 23.94324 | 285 ft | 2 kts | 130° |
| 2026-05-05 22:14 | 37.92532 | 23.94330 | 285 ft | 0 kts | 127° |
| 2026-05-05 22:15 | 37.92525 | 23.94342 | 287 ft | 5 kts | 125° |
| 2026-05-05 22:15 | 37.92489 | 23.94394 | 284 ft | 10 kts | 147° |
| 2026-05-05 22:15 | 37.92425 | 23.94384 | 283 ft | 11 kts | 204° |
| 2026-05-05 22:16 | 37.92365 | 23.94400 | 283 ft | 6 kts | 118° |
| 2026-05-05 22:16 | 37.92367 | 23.94423 | 284 ft | 1 kts | 69° |
| 2026-05-05 22:16 | 37.92370 | 23.94428 | 284 ft | 3 kts | 53° |
| 2026-05-05 22:16 | 37.92391 | 23.94435 | 284 ft | 4 kts | 356° |
| 2026-05-05 22:17 | 37.92436 | 23.94425 | 284 ft | 10 kts | 2° |
| 2026-05-05 22:17 | 37.92580 | 23.94539 | 285 ft | 37 kts | 42° |
| 2026-05-05 22:17 | 37.92882 | 23.94825 | 291 ft | 80 kts | 37° |
| 2026-05-05 22:17 | 37.93490 | 23.95405 | 301 ft | 137 kts | 36° |
| 2026-05-05 22:18 | 37.94365 | 23.96238 | 401 ft | 172 kts | 37° |
| 2026-05-05 22:18 | 37.95308 | 23.97127 | 1509 ft | 162 kts | 37° |
| 2026-05-05 22:18 | 37.96294 | 23.98089 | 1863 ft | 197 kts | 37° |
| 2026-05-05 22:18 | 37.97474 | 23.99230 | 2493 ft | 227 kts | 37° |
| 2026-05-05 22:19 | 37.98772 | 24.00476 | 3390 ft | 243 kts | 37° |
| 2026-05-05 22:19 | 37.99968 | 24.02092 | 4256 ft | 263 kts | 68° |
| 2026-05-05 22:19 | 38.00113 | 24.04351 | 5512 ft | 265 kts | 104° |
| 2026-05-05 22:19 | 37.99279 | 24.06447 | 6657 ft | 270 kts | 124° |
| 2026-05-05 22:20 | 37.98176 | 24.08408 | 7802 ft | 275 kts | 127° |
| 2026-05-05 22:20 | 37.97033 | 24.10385 | 8882 ft | 281 kts | 124° |
| 2026-05-05 22:20 | 37.95972 | 24.12477 | 9971 ft | 285 kts | 121° |
| 2026-05-05 22:20 | 37.94909 | 24.14702 | 10641 ft | 307 kts | 122° |
| 2026-05-05 22:21 | 37.93724 | 24.17103 | 11088 ft | 335 kts | 122° |
| 2026-05-05 22:21 | 37.92432 | 24.19653 | 11825 ft | 348 kts | 123° |
| 2026-05-05 22:21 | 37.91126 | 24.22251 | 12900 ft | 352 kts | 122° |
| 2026-05-05 22:21 | 37.89802 | 24.24909 | 13851 ft | 358 kts | 122° |
| 2026-05-05 22:22 | 37.88466 | 24.27585 | 14796 ft | 363 kts | 122° |
| 2026-05-05 22:22 | 37.87100 | 24.30305 | 15704 ft | 368 kts | 122° |
| 2026-05-05 22:22 | 37.85716 | 24.33058 | 16578 ft | 373 kts | 122° |
| 2026-05-05 22:22 | 37.84318 | 24.35844 | 17435 ft | 378 kts | 122° |
| 2026-05-05 22:23 | 37.82910 | 24.38647 | 18239 ft | 383 kts | 122° |
| 2026-05-05 22:23 | 37.81468 | 24.41514 | 19032 ft | 388 kts | 122° |
| 2026-05-05 22:23 | 37.80007 | 24.44414 | 19802 ft | 392 kts | 122° |
| 2026-05-05 22:23 | 37.78535 | 24.47336 | 20538 ft | 397 kts | 122° |
| 2026-05-05 22:24 | 37.77037 | 24.50305 | 21248 ft | 401 kts | 122° |
| 2026-05-05 22:24 | 37.75520 | 24.53309 | 21929 ft | 406 kts | 122° |
| 2026-05-05 22:24 | 37.74011 | 24.56297 | 22572 ft | 410 kts | 123° |
| 2026-05-05 22:24 | 37.72465 | 24.59354 | 23202 ft | 414 kts | 123° |
| 2026-05-05 22:25 | 37.70903 | 24.62439 | 23796 ft | 418 kts | 123° |
| 2026-05-05 22:25 | 37.69330 | 24.65544 | 24383 ft | 422 kts | 123° |
| 2026-05-05 22:25 | 37.67738 | 24.68682 | 24942 ft | 425 kts | 123° |
| 2026-05-05 22:25 | 37.66136 | 24.71837 | 25478 ft | 429 kts | 123° |
| 2026-05-05 22:26 | 37.64515 | 24.75026 | 26003 ft | 432 kts | 123° |
| 2026-05-05 22:26 | 37.62883 | 24.78236 | 26511 ft | 436 kts | 123° |
| 2026-05-05 22:26 | 37.61258 | 24.81426 | 26996 ft | 439 kts | 123° |
| 2026-05-05 22:26 | 37.59593 | 24.84694 | 27463 ft | 443 kts | 123° |
| 2026-05-05 22:27 | 37.57918 | 24.87977 | 27948 ft | 446 kts | 123° |
| 2026-05-05 22:27 | 37.56236 | 24.91271 | 28395 ft | 449 kts | 123° |
| 2026-05-05 22:27 | 37.54535 | 24.94598 | 28824 ft | 452 kts | 123° |
| 2026-05-05 22:27 | 37.52839 | 24.97913 | 29253 ft | 455 kts | 123° |
| 2026-05-05 22:28 | 37.51119 | 25.01271 | 29663 ft | 458 kts | 123° |
| 2026-05-05 22:28 | 37.49388 | 25.04648 | 30065 ft | 461 kts | 123° |
| 2026-05-05 22:28 | 37.47640 | 25.08051 | 30450 ft | 464 kts | 123° |
| 2026-05-05 22:28 | 37.45876 | 25.11485 | 30834 ft | 466 kts | 123° |
| 2026-05-05 22:29 | 37.44110 | 25.14919 | 31195 ft | 469 kts | 123° |
| 2026-05-05 22:29 | 37.42333 | 25.18371 | 31548 ft | 472 kts | 123° |
| 2026-05-05 22:29 | 37.40539 | 25.21851 | 31894 ft | 474 kts | 123° |
| 2026-05-05 22:29 | 37.38738 | 25.25343 | 32271 ft | 476 kts | 123° |
| 2026-05-05 22:30 | 37.36961 | 25.28784 | 32747 ft | 474 kts | 123° |
| 2026-05-05 22:30 | 37.35161 | 25.32265 | 33207 ft | 473 kts | 123° |
| 2026-05-05 22:30 | 37.33370 | 25.35725 | 33643 ft | 472 kts | 123° |
| 2026-05-05 22:30 | 37.31575 | 25.39190 | 34069 ft | 472 kts | 123° |
| 2026-05-05 22:31 | 37.29787 | 25.42636 | 34495 ft | 471 kts | 123° |
| 2026-05-05 22:31 | 37.28003 | 25.46073 | 34890 ft | 471 kts | 123° |
| 2026-05-05 22:31 | 37.26198 | 25.49547 | 34925 ft | 476 kts | 123° |
| 2026-05-05 22:32 | 37.22593 | 25.56473 | 34919 ft | 470 kts | 123° |
| 2026-05-05 22:32 | 37.19024 | 25.63315 | 34927 ft | 468 kts | 123° |
| 2026-05-05 22:33 | 37.15470 | 25.70114 | 34924 ft | 469 kts | 123° |
| 2026-05-05 22:33 | 37.11892 | 25.76946 | 34923 ft | 469 kts | 123° |
| 2026-05-05 22:34 | 37.08307 | 25.83778 | 34922 ft | 469 kts | 123° |
| 2026-05-05 22:34 | 37.04716 | 25.90607 | 34923 ft | 469 kts | 123° |
| 2026-05-05 22:35 | 37.01120 | 25.97431 | 34923 ft | 469 kts | 123° |
| 2026-05-05 22:35 | 36.97527 | 26.04235 | 34923 ft | 468 kts | 123° |
| 2026-05-05 22:36 | 36.93951 | 26.10995 | 34922 ft | 468 kts | 123° |
| 2026-05-05 22:36 | 36.90355 | 26.17777 | 34924 ft | 468 kts | 123° |
| 2026-05-05 22:37 | 36.86760 | 26.24546 | 34923 ft | 467 kts | 123° |
| 2026-05-05 22:37 | 36.83178 | 26.31275 | 34922 ft | 467 kts | 123° |
| 2026-05-05 22:38 | 36.79579 | 26.38024 | 34922 ft | 467 kts | 124° |
| 2026-05-05 22:38 | 36.75974 | 26.44769 | 34922 ft | 467 kts | 124° |
| 2026-05-05 22:39 | 36.72360 | 26.51519 | 34924 ft | 469 kts | 124° |
| 2026-05-05 22:39 | 36.68728 | 26.58287 | 34929 ft | 471 kts | 124° |
| 2026-05-05 22:40 | 36.65088 | 26.65059 | 34932 ft | 471 kts | 124° |
| 2026-05-05 22:40 | 36.61458 | 26.71797 | 34931 ft | 469 kts | 124° |
| 2026-05-05 22:41 | 36.57819 | 26.78538 | 34929 ft | 468 kts | 124° |
| 2026-05-05 22:41 | 36.54194 | 26.85242 | 34925 ft | 467 kts | 124° |
| 2026-05-05 22:42 | 36.50559 | 26.91950 | 34931 ft | 469 kts | 124° |
| 2026-05-05 22:42 | 36.46904 | 26.98680 | 34929 ft | 470 kts | 124° |
| 2026-05-05 22:43 | 36.43232 | 27.05431 | 34933 ft | 471 kts | 124° |
| 2026-05-05 22:43 | 36.39585 | 27.12122 | 34933 ft | 470 kts | 124° |
| 2026-05-05 22:44 | 36.35917 | 27.18837 | 34930 ft | 468 kts | 124° |
| 2026-05-05 22:44 | 36.32257 | 27.25525 | 34926 ft | 467 kts | 124° |
| 2026-05-05 22:45 | 36.28597 | 27.32200 | 34929 ft | 468 kts | 124° |
| 2026-05-05 22:45 | 36.24947 | 27.38842 | 34929 ft | 470 kts | 124° |
| 2026-05-05 22:46 | 36.21266 | 27.45530 | 34933 ft | 469 kts | 124° |
| 2026-05-05 22:46 | 36.17575 | 27.52222 | 34933 ft | 471 kts | 124° |
| 2026-05-05 22:47 | 36.13881 | 27.58907 | 34932 ft | 469 kts | 124° |
| 2026-05-05 22:47 | 36.10191 | 27.65571 | 34929 ft | 468 kts | 124° |
| 2026-05-05 22:48 | 36.06511 | 27.72204 | 34928 ft | 467 kts | 124° |
| 2026-05-05 22:48 | 36.02826 | 27.78832 | 34926 ft | 469 kts | 124° |
| 2026-05-05 22:49 | 35.99133 | 27.85464 | 34929 ft | 472 kts | 124° |
| 2026-05-05 22:49 | 35.95422 | 27.92115 | 34932 ft | 470 kts | 124° |
| 2026-05-05 22:50 | 35.91711 | 27.98753 | 34929 ft | 469 kts | 124° |
| 2026-05-05 22:50 | 35.88003 | 28.05373 | 34928 ft | 468 kts | 124° |
| 2026-05-05 22:51 | 35.84317 | 28.11940 | 34927 ft | 468 kts | 125° |
| 2026-05-05 22:51 | 35.80600 | 28.18551 | 34927 ft | 468 kts | 125° |
| 2026-05-05 22:52 | 35.76884 | 28.25148 | 34927 ft | 468 kts | 125° |
| 2026-05-05 22:52 | 35.73183 | 28.31704 | 34927 ft | 468 kts | 125° |
| 2026-05-05 22:53 | 35.69453 | 28.38300 | 34927 ft | 468 kts | 125° |
| 2026-05-05 22:53 | 35.65726 | 28.44879 | 34927 ft | 468 kts | 125° |
| 2026-05-05 22:54 | 35.61996 | 28.51449 | 34927 ft | 468 kts | 125° |
| 2026-05-05 22:54 | 35.58260 | 28.58018 | 34927 ft | 469 kts | 125° |
| 2026-05-05 22:55 | 35.54541 | 28.64546 | 34927 ft | 469 kts | 125° |
| 2026-05-05 22:55 | 35.50803 | 28.71093 | 34927 ft | 469 kts | 125° |
| 2026-05-05 22:56 | 35.47057 | 28.77644 | 34927 ft | 469 kts | 125° |
| 2026-05-05 22:56 | 35.43305 | 28.84191 | 34928 ft | 469 kts | 125° |
| 2026-05-05 22:57 | 35.39565 | 28.90707 | 34930 ft | 469 kts | 125° |
| 2026-05-05 22:57 | 35.35816 | 28.97224 | 34929 ft | 469 kts | 125° |
| 2026-05-05 22:58 | 35.32053 | 29.03755 | 34928 ft | 469 kts | 125° |
| 2026-05-05 22:58 | 35.28285 | 29.10282 | 34930 ft | 469 kts | 125° |
| 2026-05-05 22:59 | 35.24514 | 29.16803 | 34928 ft | 469 kts | 125° |
| 2026-05-05 22:59 | 35.20770 | 29.23263 | 34930 ft | 469 kts | 125° |
| 2026-05-05 23:00 | 35.15112 | 29.33006 | 34930 ft | 469 kts | 126° |
| 2026-05-05 23:00 | 35.11968 | 29.38407 | 34928 ft | 469 kts | 126° |
| 2026-05-05 23:01 | 35.08178 | 29.44909 | 34928 ft | 469 kts | 126° |
| 2026-05-05 23:01 | 35.04400 | 29.51376 | 34930 ft | 469 kts | 126° |
| 2026-05-05 23:02 | 35.00608 | 29.57856 | 34928 ft | 469 kts | 126° |
| 2026-05-05 23:02 | 34.96832 | 29.64298 | 34930 ft | 469 kts | 126° |
| 2026-05-05 23:03 | 34.93030 | 29.70772 | 34931 ft | 469 kts | 126° |
| 2026-05-05 23:03 | 34.89225 | 29.77239 | 34928 ft | 469 kts | 126° |
| 2026-05-05 23:04 | 34.85419 | 29.83695 | 34928 ft | 469 kts | 126° |
| 2026-05-05 23:04 | 34.81634 | 29.90105 | 34928 ft | 469 kts | 126° |
| 2026-05-05 23:05 | 34.79547 | 29.93633 | 34929 ft | 469 kts | 126° |
| 2026-05-05 23:05 | 34.77726 | 29.96711 | 34932 ft | 469 kts | 126° |
| 2026-05-05 23:06 | 34.74006 | 30.03516 | 34927 ft | 469 kts | 122° |
| 2026-05-05 23:06 | 34.70560 | 30.10272 | 34931 ft | 469 kts | 122° |
| 2026-05-05 23:07 | 34.70108 | 30.11158 | 34934 ft | 469 kts | 122° |
| 2026-05-05 23:08 | 34.70024 | 30.11324 | 34931 ft | 469 kts | 122° |
| 2026-05-05 23:09 | 34.68308 | 30.14707 | 34935 ft | 469 kts | 122° |
| 2026-05-05 23:09 | 34.64878 | 30.21451 | 34934 ft | 470 kts | 122° |
| 2026-05-05 23:10 | 34.61434 | 30.28192 | 34932 ft | 470 kts | 122° |
| 2026-05-05 23:10 | 34.57988 | 30.34938 | 34932 ft | 469 kts | 122° |
| 2026-05-05 23:11 | 34.54548 | 30.41651 | 34937 ft | 469 kts | 122° |
| 2026-05-05 23:11 | 34.51115 | 30.48344 | 34932 ft | 469 kts | 122° |
| 2026-05-05 23:12 | 34.47689 | 30.55005 | 34932 ft | 469 kts | 122° |
| 2026-05-05 23:12 | 34.44224 | 30.61733 | 34932 ft | 469 kts | 122° |
| 2026-05-05 23:13 | 34.40762 | 30.68440 | 34932 ft | 469 kts | 122° |
| 2026-05-05 23:13 | 34.37323 | 30.75093 | 34931 ft | 469 kts | 122° |
| 2026-05-05 23:14 | 34.33850 | 30.81796 | 34931 ft | 469 kts | 122° |
| 2026-05-05 23:14 | 34.30386 | 30.88471 | 34931 ft | 469 kts | 122° |
| 2026-05-05 23:15 | 34.26936 | 30.95107 | 34936 ft | 468 kts | 122° |
| 2026-05-05 23:15 | 34.23467 | 31.01767 | 34930 ft | 468 kts | 122° |
| 2026-05-05 23:16 | 34.19980 | 31.08446 | 34930 ft | 468 kts | 122° |
| 2026-05-05 23:16 | 34.16503 | 31.15098 | 34930 ft | 468 kts | 122° |
| 2026-05-05 23:17 | 34.13018 | 31.21751 | 34931 ft | 468 kts | 122° |
| 2026-05-05 23:17 | 34.09557 | 31.28345 | 34978 ft | 467 kts | 122° |
| 2026-05-05 23:18 | 34.06065 | 31.34986 | 35005 ft | 469 kts | 122° |
| 2026-05-05 23:18 | 34.02571 | 31.41620 | 35004 ft | 468 kts | 122° |
| 2026-05-05 23:19 | 33.99077 | 31.48240 | 34994 ft | 467 kts | 122° |
| 2026-05-05 23:19 | 33.95589 | 31.54838 | 35004 ft | 466 kts | 122° |
| 2026-05-05 23:20 | 33.92131 | 31.61367 | 35005 ft | 467 kts | 122° |
| 2026-05-05 23:20 | 33.88641 | 31.67944 | 35004 ft | 467 kts | 122° |
| 2026-05-05 23:21 | 33.85124 | 31.74560 | 35004 ft | 468 kts | 123° |
| 2026-05-05 23:21 | 33.81611 | 31.81156 | 35003 ft | 468 kts | 123° |
| 2026-05-05 23:22 | 33.78108 | 31.87722 | 35010 ft | 469 kts | 123° |
| 2026-05-05 23:22 | 33.74582 | 31.94319 | 35012 ft | 469 kts | 123° |
| 2026-05-05 23:23 | 33.71052 | 32.00911 | 35009 ft | 469 kts | 123° |
| 2026-05-05 23:23 | 33.67517 | 32.07502 | 35011 ft | 467 kts | 123° |
| 2026-05-05 23:24 | 33.64006 | 32.14034 | 35007 ft | 466 kts | 123° |
| 2026-05-05 23:24 | 33.60486 | 32.20573 | 34997 ft | 465 kts | 123° |
| 2026-05-05 23:25 | 33.56995 | 32.27046 | 35002 ft | 467 kts | 123° |
| 2026-05-05 23:25 | 33.53461 | 32.33586 | 35003 ft | 468 kts | 123° |
| 2026-05-05 23:26 | 33.49909 | 32.40149 | 35006 ft | 469 kts | 123° |
| 2026-05-05 23:26 | 33.46362 | 32.46690 | 35006 ft | 468 kts | 123° |
| 2026-05-05 23:27 | 33.42817 | 32.53216 | 35008 ft | 466 kts | 123° |
| 2026-05-05 23:27 | 33.39281 | 32.59714 | 34996 ft | 465 kts | 123° |
| 2026-05-05 23:28 | 33.35763 | 32.66168 | 35005 ft | 466 kts | 123° |
| 2026-05-05 23:28 | 33.32210 | 32.72673 | 35007 ft | 468 kts | 123° |
| 2026-05-05 23:29 | 33.28651 | 32.79180 | 35005 ft | 467 kts | 123° |
| 2026-05-05 23:29 | 33.26877 | 32.82418 | 34697 ft | 462 kts | 123° |
| 2026-05-05 23:29 | 33.25104 | 32.85652 | 33977 ft | 464 kts | 123° |
| 2026-05-05 23:30 | 33.23349 | 32.88850 | 33551 ft | 458 kts | 123° |
| 2026-05-05 23:30 | 33.21611 | 32.92015 | 33005 ft | 455 kts | 123° |
| 2026-05-05 23:30 | 33.19875 | 32.95174 | 32495 ft | 451 kts | 123° |
| 2026-05-05 23:30 | 33.18163 | 32.98286 | 31966 ft | 447 kts | 123° |
| 2026-05-05 23:31 | 33.16462 | 33.01375 | 31450 ft | 443 kts | 123° |
| 2026-05-05 23:31 | 33.14775 | 33.04436 | 30919 ft | 440 kts | 123° |
| 2026-05-05 23:31 | 33.13097 | 33.07477 | 30402 ft | 436 kts | 123° |
| 2026-05-05 23:31 | 33.11440 | 33.10479 | 29874 ft | 432 kts | 123° |
| 2026-05-05 23:32 | 33.09786 | 33.13474 | 29357 ft | 429 kts | 123° |
| 2026-05-05 23:32 | 33.08153 | 33.16427 | 28830 ft | 425 kts | 123° |
| 2026-05-05 23:32 | 33.06549 | 33.19327 | 28320 ft | 422 kts | 123° |
| 2026-05-05 23:32 | 33.04935 | 33.22241 | 27788 ft | 418 kts | 123° |
| 2026-05-05 23:33 | 33.03339 | 33.25121 | 27271 ft | 415 kts | 123° |
| 2026-05-05 23:33 | 33.01748 | 33.27990 | 26734 ft | 412 kts | 123° |
| 2026-05-05 23:33 | 33.00178 | 33.30819 | 26219 ft | 408 kts | 123° |
| 2026-05-05 23:33 | 32.98619 | 33.33625 | 25683 ft | 405 kts | 123° |
| 2026-05-05 23:34 | 32.97066 | 33.36418 | 25165 ft | 401 kts | 123° |
| 2026-05-05 23:34 | 32.95535 | 33.39171 | 24630 ft | 398 kts | 123° |
| 2026-05-05 23:34 | 32.94008 | 33.41915 | 24108 ft | 395 kts | 123° |
| 2026-05-05 23:34 | 32.92490 | 33.44639 | 23569 ft | 392 kts | 123° |
| 2026-05-05 23:35 | 32.91012 | 33.47290 | 23058 ft | 389 kts | 123° |
| 2026-05-05 23:35 | 32.89525 | 33.49955 | 22518 ft | 385 kts | 123° |
| 2026-05-05 23:35 | 32.88043 | 33.52609 | 21993 ft | 382 kts | 124° |
| 2026-05-05 23:35 | 32.86576 | 33.55234 | 21455 ft | 379 kts | 124° |
| 2026-05-05 23:36 | 32.85122 | 33.57836 | 20915 ft | 376 kts | 124° |
| 2026-05-05 23:36 | 32.83675 | 33.60422 | 20372 ft | 373 kts | 124° |
| 2026-05-05 23:36 | 32.82192 | 33.62893 | 19820 ft | 369 kts | 133° |
| 2026-05-05 23:36 | 32.80420 | 33.65074 | 19226 ft | 367 kts | 134° |
| 2026-05-05 23:37 | 32.78657 | 33.67248 | 18694 ft | 363 kts | 134° |
| 2026-05-05 23:37 | 32.76918 | 33.69400 | 18239 ft | 358 kts | 134° |
| 2026-05-05 23:37 | 32.75205 | 33.71515 | 17824 ft | 352 kts | 134° |
| 2026-05-05 23:37 | 32.73511 | 33.73602 | 17396 ft | 352 kts | 134° |
| 2026-05-05 23:38 | 32.71801 | 33.75707 | 16916 ft | 352 kts | 134° |
| 2026-05-05 23:38 | 32.70123 | 33.77775 | 16485 ft | 346 kts | 134° |
| 2026-05-05 23:38 | 32.68482 | 33.79795 | 16068 ft | 344 kts | 134° |
| 2026-05-05 23:38 | 32.66818 | 33.81842 | 15646 ft | 344 kts | 134° |
| 2026-05-05 23:39 | 32.65152 | 33.83889 | 15218 ft | 342 kts | 134° |
| 2026-05-05 23:39 | 32.63518 | 33.85897 | 14803 ft | 336 kts | 134° |
| 2026-05-05 23:39 | 32.61896 | 33.87889 | 14391 ft | 337 kts | 134° |
| 2026-05-05 23:39 | 32.60265 | 33.89890 | 13978 ft | 337 kts | 134° |
| 2026-05-05 23:40 | 32.58644 | 33.91880 | 13562 ft | 332 kts | 134° |
| 2026-05-05 23:40 | 32.57050 | 33.93833 | 13160 ft | 328 kts | 134° |
| 2026-05-05 23:40 | 32.55994 | 33.95127 | 12902 ft | 329 kts | 134° |
| 2026-05-05 23:40 | 32.54446 | 33.97048 | 12662 ft | 328 kts | 133° |
| 2026-05-05 23:41 | 32.52338 | 33.99704 | 12343 ft | 329 kts | 133° |
| 2026-05-05 23:41 | 32.50766 | 34.01670 | 12094 ft | 329 kts | 134° |
| 2026-05-05 23:41 | 32.49720 | 34.02971 | 11933 ft | 328 kts | 134° |
| 2026-05-05 23:41 | 32.48142 | 34.04935 | 11682 ft | 327 kts | 134° |
| 2026-05-05 23:42 | 32.46589 | 34.06875 | 11439 ft | 326 kts | 134° |
| 2026-05-05 23:42 | 32.45027 | 34.08823 | 11183 ft | 324 kts | 134° |
| 2026-05-05 23:42 | 32.43484 | 34.10745 | 10926 ft | 318 kts | 134° |
| 2026-05-05 23:42 | 32.42160 | 34.12764 | 10703 ft | 303 kts | 121° |
| 2026-05-05 23:43 | 32.41020 | 34.14805 | 10468 ft | 291 kts | 125° |
| 2026-05-05 23:43 | 32.39872 | 34.16726 | 10244 ft | 282 kts | 125° |
| 2026-05-05 23:43 | 32.38770 | 34.18629 | 10039 ft | 279 kts | 124° |
| 2026-05-05 23:43 | 32.37692 | 34.20532 | 9829 ft | 277 kts | 124° |
| 2026-05-05 23:44 | 32.36645 | 34.22368 | 9609 ft | 277 kts | 124° |
| 2026-05-05 23:47 | 32.35669 | 34.24066 | 9453 ft | 277 kts | 124° |
| 2026-05-05 23:47 | 32.34584 | 34.25952 | 9239 ft | 277 kts | 124° |
| 2026-05-05 23:47 | 32.33517 | 34.27811 | 9046 ft | 276 kts | 124° |
| 2026-05-05 23:48 | 32.32446 | 34.29677 | 8926 ft | 272 kts | 124° |
| 2026-05-05 23:48 | 32.31377 | 34.31537 | 8866 ft | 275 kts | 124° |
| 2026-05-05 23:48 | 32.30292 | 34.33424 | 8554 ft | 276 kts | 124° |
| 2026-05-05 23:48 | 32.29222 | 34.35286 | 8289 ft | 273 kts | 124° |
| 2026-05-05 23:49 | 32.28154 | 34.37142 | 8009 ft | 272 kts | 124° |
| 2026-05-05 23:49 | 32.27093 | 34.38984 | 7725 ft | 271 kts | 124° |
| 2026-05-05 23:49 | 32.26037 | 34.40818 | 7449 ft | 270 kts | 124° |
| 2026-05-05 23:49 | 32.24982 | 34.42649 | 7168 ft | 269 kts | 124° |
| 2026-05-05 23:50 | 32.23944 | 34.44449 | 6897 ft | 268 kts | 124° |
| 2026-05-05 23:50 | 32.22898 | 34.46262 | 6618 ft | 266 kts | 124° |
| 2026-05-05 23:50 | 32.21850 | 34.48070 | 6346 ft | 265 kts | 124° |
| 2026-05-05 23:50 | 32.20811 | 34.49856 | 6069 ft | 264 kts | 124° |
| 2026-05-05 23:51 | 32.19773 | 34.51643 | 5809 ft | 263 kts | 124° |
| 2026-05-05 23:51 | 32.18737 | 34.53428 | 5531 ft | 262 kts | 124° |
| 2026-05-05 23:51 | 32.17708 | 34.55199 | 5263 ft | 260 kts | 124° |
| 2026-05-05 23:51 | 32.16687 | 34.56956 | 4992 ft | 259 kts | 124° |
| 2026-05-05 23:52 | 32.15814 | 34.58814 | 4723 ft | 258 kts | 119° |
| 2026-05-05 23:52 | 32.14793 | 34.60548 | 4459 ft | 257 kts | 126° |
| 2026-05-05 23:52 | 32.13818 | 34.62291 | 4201 ft | 257 kts | 121° |
| 2026-05-05 23:52 | 32.12901 | 34.64085 | 3937 ft | 256 kts | 121° |
| 2026-05-05 23:53 | 32.11982 | 34.65886 | 3671 ft | 255 kts | 121° |
| 2026-05-05 23:53 | 32.11080 | 34.67655 | 3421 ft | 245 kts | 121° |
| 2026-05-05 23:53 | 32.10224 | 34.69335 | 3198 ft | 235 kts | 121° |
| 2026-05-05 23:53 | 32.09388 | 34.70975 | 2944 ft | 232 kts | 121° |
| 2026-05-05 23:54 | 32.08573 | 34.72583 | 2728 ft | 231 kts | 121° |
| 2026-05-05 23:54 | 32.07750 | 34.74204 | 2478 ft | 230 kts | 121° |
| 2026-05-05 23:54 | 32.06925 | 34.75823 | 2243 ft | 224 kts | 121° |
| 2026-05-05 23:54 | 32.06146 | 34.77352 | 1956 ft | 217 kts | 121° |
| 2026-05-05 23:55 | 32.05399 | 34.78816 | 1689 ft | 197 kts | 121° |
| 2026-05-05 23:55 | 32.04748 | 34.80095 | 1426 ft | 167 kts | 121° |
| 2026-05-05 23:55 | 32.04168 | 34.81232 | 1209 ft | 158 kts | 121° |
| 2026-05-05 23:55 | 32.03608 | 34.82328 | 1007 ft | 155 kts | 121° |
| 2026-05-05 23:56 | 32.03527 | 34.82489 | 983 ft | 154 kts | 121° |
| 2026-05-05 23:56 | 32.03241 | 34.83058 | 876 ft | 153 kts | 121° |
| 2026-05-05 23:56 | 32.02699 | 34.84126 | 673 ft | 153 kts | 121° |
| 2026-05-05 23:57 | 32.02152 | 34.85212 | 457 ft | 157 kts | 121° |
| 2026-05-05 23:57 | 32.01616 | 34.86293 | 246 ft | 152 kts | 121° |
| 2026-05-05 23:57 | 32.01065 | 34.87327 | 122 ft | 140 kts | 119° |
| 2026-05-05 23:57 | 32.00636 | 34.88047 | 129 ft | 71 kts | 122° |
| 2026-05-05 23:58 | 32.00546 | 34.88251 | 137 ft | 3 kts | 87° |
| 2026-05-05 23:58 | 32.00545 | 34.88261 | 137 ft | 8 kts | 92° |
| 2026-05-05 23:58 | 32.00511 | 34.88391 | 140 ft | 26 kts | 116° |
| 2026-05-05 23:58 | 32.00364 | 34.88619 | 143 ft | 43 kts | 138° |
| 2026-05-05 23:59 | 32.00192 | 34.88677 | 143 ft | 0 kts | 221° |
| 2026-05-05 23:59 | 32.00186 | 34.88666 | 143 ft | 4 kts | 241° |
| 2026-05-05 23:59 | 32.00184 | 34.88582 | 142 ft | 20 kts | 277° |
| 2026-05-05 23:59 | 32.00239 | 34.88368 | 139 ft | 31 kts | 309° |
| 2026-05-06 00:00 | 32.00292 | 34.88276 | 138 ft | 14 kts | 291° |
| 2026-05-06 00:00 | 32.00350 | 34.88145 | 136 ft | 17 kts | 303° |
| 2026-05-06 00:00 | 32.00415 | 34.88027 | 135 ft | 17 kts | 306° |
| 2026-05-06 00:00 | 32.00455 | 34.87950 | 128 ft | 1 kts | 303° |
| 2026-05-06 00:01 | 32.00467 | 34.87925 | 128 ft | 7 kts | 298° |
| 2026-05-06 00:01 | 32.00470 | 34.87856 | 130 ft | 9 kts | 247° |
| 2026-05-06 00:01 | 32.00426 | 34.87799 | 127 ft | 0 kts | 218° |
| 2026-05-06 00:02 | 32.00423 | 34.87796 | 126 ft | 3 kts | 219° |
| 2026-05-06 00:02 | 32.00392 | 34.87770 | 127 ft | 9 kts | 211° |
| 2026-05-06 00:02 | 32.00320 | 34.87721 | 131 ft | 15 kts | 214° |
| 2026-05-06 00:03 | 32.00222 | 34.87649 | 126 ft | 15 kts | 215° |
| 2026-05-06 00:03 | 32.00126 | 34.87609 | 135 ft | 14 kts | 194° |
| 2026-05-06 00:03 | 32.00096 | 34.87576 | 133 ft | 1 kts | 263° |
| 2026-05-06 00:03 | 32.00096 | 34.87574 | 134 ft | 0 kts | 271° |
| 2026-05-06 00:04 | 32.00096 | 34.87573 | 134 ft | 1 kts | 271° |
| 2026-05-06 00:04 | 32.00099 | 34.87556 | 135 ft | 3 kts | 282° |
| 2026-05-06 00:04 | 32.00108 | 34.87520 | 129 ft | 6 kts | 297° |
| 2026-05-06 00:05 | 32.00118 | 34.87499 | 131 ft | 0 kts | 297° |